sensor_id;sensor_type;location;lat;lon;timestamp;temperature;humidity
64654;DHT22;51065;48.884;12.598;2024-02-21T00:02:08;4.50;99.90
64654;DHT22;51065;48.884;12.598;2024-02-21T00:04:33;4.60;1.00
64654;DHT22;51065;48.884;12.598;2024-02-21T00:07:00;4.60;99.90
64654;DHT22;51065;48.884;12.598;2024-02-21T00:09:25;4.60;99.90
64654;DHT22;51065;48.884;12.598;2024-02-21T00:11:51;4.60;99.90
64654;DHT22;51065;48.884;12.598;2024-02-21T00:14:17;4.60;99.90
64654;DHT22;51065;48.884;12.598;2024-02-21T00:16:43;4.60;99.90
64654;DHT22;51065;48.884;12.598;2024-02-21T00:19:08;4.60;99.90
64654;DHT22;51065;48.884;12.598;2024-02-21T00:21:34;4.50;1.00
64654;DHT22;51065;48.884;12.598;2024-02-21T00:23:59;4.40;1.00
64654;DHT22;51065;48.884;12.598;2024-02-21T00:26:25;4.40;1.00
64654;DHT22;51065;48.884;12.598;2024-02-21T00:28:51;4.30;1.00
64654;DHT22;51065;48.884;12.598;2024-02-21T00:31:16;4.30;1.00
64654;DHT22;51065;48.884;12.598;2024-02-21T00:33:42;4.30;1.00
64654;DHT22;51065;48.884;12.598;2024-02-21T00:36:07;4.20;1.00
64654;DHT22;51065;48.884;12.598;2024-02-21T00:38:33;4.20;1.00
64654;DHT22;51065;48.884;12.598;2024-02-21T00:40:59;4.30;26.20
64654;DHT22;51065;48.884;12.598;2024-02-21T00:43:25;4.40;42.20
64654;DHT22;51065;48.884;12.598;2024-02-21T00:45:50;4.40;1.00
64654;DHT22;51065;48.884;12.598;2024-02-21T00:48:16;4.40;1.00
64654;DHT22;51065;48.884;12.598;2024-02-21T00:50:41;4.40;1.00
64654;DHT22;51065;48.884;12.598;2024-02-21T00:53:07;4.30;1.00
64654;DHT22;51065;48.884;12.598;2024-02-21T00:55:34;4.20;1.00
64654;DHT22;51065;48.884;12.598;2024-02-21T00:58:00;4.20;1.00
64654;DHT22;51065;48.884;12.598;2024-02-21T01:00:25;4.20;1.00
64654;DHT22;51065;48.884;12.598;2024-02-21T01:02:51;4.10;1.00
64654;DHT22;51065;48.884;12.598;2024-02-21T01:05:17;3.90;1.00
64654;DHT22;51065;48.884;12.598;2024-02-21T01:07:42;3.90;63.80
64654;DHT22;51065;48.884;12.598;2024-02-21T01:10:08;3.90;99.90
64654;DHT22;51065;48.884;12.598;2024-02-21T01:12:34;3.90;99.90
64654;DHT22;51065;48.884;12.598;2024-02-21T01:14:59;3.80;94.80
64654;DHT22;51065;48.884;12.598;2024-02-21T01:17:25;3.60;43.50
64654;DHT22;51065;48.884;12.598;2024-02-21T01:19:50;3.40;57.30
64654;DHT22;51065;48.884;12.598;2024-02-21T01:22:16;3.30;99.90
64654;DHT22;51065;48.884;12.598;2024-02-21T01:24:41;3.20;94.60
64654;DHT22;51065;48.884;12.598;2024-02-21T01:27:07;3.20;99.90
64654;DHT22;51065;48.884;12.598;2024-02-21T01:29:33;3.10;99.90
64654;DHT22;51065;48.884;12.598;2024-02-21T01:31:58;3.00;99.90
64654;DHT22;51065;48.884;12.598;2024-02-21T01:34:24;3.20;99.90
64654;DHT22;51065;48.884;12.598;2024-02-21T01:36:50;3.10;99.90
64654;DHT22;51065;48.884;12.598;2024-02-21T01:39:15;2.90;99.90
64654;DHT22;51065;48.884;12.598;2024-02-21T01:41:41;2.90;99.90
64654;DHT22;51065;48.884;12.598;2024-02-21T01:44:07;3.00;99.90
64654;DHT22;51065;48.884;12.598;2024-02-21T01:46:32;3.20;99.90
64654;DHT22;51065;48.884;12.598;2024-02-21T01:48:59;3.10;99.90
64654;DHT22;51065;48.884;12.598;2024-02-21T01:51:25;3.10;99.90
64654;DHT22;51065;48.884;12.598;2024-02-21T01:53:51;3.20;99.90
64654;DHT22;51065;48.884;12.598;2024-02-21T01:56:17;3.10;99.90
64654;DHT22;51065;48.884;12.598;2024-02-21T01:58:43;3.00;99.90
64654;DHT22;51065;48.884;12.598;2024-02-21T02:01:10;3.00;99.90
64654;DHT22;51065;48.884;12.598;2024-02-21T02:03:36;2.90;99.90
64654;DHT22;51065;48.884;12.598;2024-02-21T02:06:02;2.90;99.90
64654;DHT22;51065;48.884;12.598;2024-02-21T02:08:27;3.00;99.90
64654;DHT22;51065;48.884;12.598;2024-02-21T02:10:53;3.10;99.90
64654;DHT22;51065;48.884;12.598;2024-02-21T02:13:19;3.20;99.90
64654;DHT22;51065;48.884;12.598;2024-02-21T02:15:47;3.20;99.90
64654;DHT22;51065;48.884;12.598;2024-02-21T02:18:14;3.10;99.90
64654;DHT22;51065;48.884;12.598;2024-02-21T02:20:40;3.00;99.90
64654;DHT22;51065;48.884;12.598;2024-02-21T02:25:46;2.80;99.90
64654;DHT22;51065;48.884;12.598;2024-02-21T02:28:14;2.80;99.90
64654;DHT22;51065;48.884;12.598;2024-02-21T02:30:40;2.70;99.90
64654;DHT22;51065;48.884;12.598;2024-02-21T02:33:06;2.70;99.90
64654;DHT22;51065;48.884;12.598;2024-02-21T02:35:32;2.80;99.90
64654;DHT22;51065;48.884;12.598;2024-02-21T02:37:58;2.80;99.90
64654;DHT22;51065;48.884;12.598;2024-02-21T02:40:24;2.90;99.90
64654;DHT22;51065;48.884;12.598;2024-02-21T02:42:50;2.80;99.90
64654;DHT22;51065;48.884;12.598;2024-02-21T02:45:16;2.70;99.90
64654;DHT22;51065;48.884;12.598;2024-02-21T02:47:44;2.70;99.90
64654;DHT22;51065;48.884;12.598;2024-02-21T02:50:11;2.70;99.90
64654;DHT22;51065;48.884;12.598;2024-02-21T02:52:36;2.60;99.90
64654;DHT22;51065;48.884;12.598;2024-02-21T02:55:02;2.50;99.90
64654;DHT22;51065;48.884;12.598;2024-02-21T02:57:28;2.60;99.90
64654;DHT22;51065;48.884;12.598;2024-02-21T02:59:54;2.50;99.90
64654;DHT22;51065;48.884;12.598;2024-02-21T03:02:20;2.40;99.90
64654;DHT22;51065;48.884;12.598;2024-02-21T03:04:45;2.40;99.90
64654;DHT22;51065;48.884;12.598;2024-02-21T03:07:11;2.40;99.90
64654;DHT22;51065;48.884;12.598;2024-02-21T03:09:37;2.60;99.90
64654;DHT22;51065;48.884;12.598;2024-02-21T03:12:04;2.60;99.90
64654;DHT22;51065;48.884;12.598;2024-02-21T03:14:30;2.60;99.90
64654;DHT22;51065;48.884;12.598;2024-02-21T03:16:56;2.70;99.90
64654;DHT22;51065;48.884;12.598;2024-02-21T03:19:22;2.80;99.90
64654;DHT22;51065;48.884;12.598;2024-02-21T03:21:48;2.80;99.90
64654;DHT22;51065;48.884;12.598;2024-02-21T03:24:16;2.90;99.90
64654;DHT22;51065;48.884;12.598;2024-02-21T03:26:41;3.00;99.90
64654;DHT22;51065;48.884;12.598;2024-02-21T03:29:07;3.20;99.90
64654;DHT22;51065;48.884;12.598;2024-02-21T03:31:33;3.20;99.90
64654;DHT22;51065;48.884;12.598;2024-02-21T03:33:58;3.20;99.90
64654;DHT22;51065;48.884;12.598;2024-02-21T03:36:24;3.20;99.90
64654;DHT22;51065;48.884;12.598;2024-02-21T03:38:49;3.10;99.90
64654;DHT22;51065;48.884;12.598;2024-02-21T03:41:15;3.30;99.90
64654;DHT22;51065;48.884;12.598;2024-02-21T03:43:41;3.30;99.90
64654;DHT22;51065;48.884;12.598;2024-02-21T03:46:06;3.40;99.90
64654;DHT22;51065;48.884;12.598;2024-02-21T03:48:32;3.40;99.90
64654;DHT22;51065;48.884;12.598;2024-02-21T03:50:58;3.50;99.90
64654;DHT22;51065;48.884;12.598;2024-02-21T03:53:24;3.60;99.90
64654;DHT22;51065;48.884;12.598;2024-02-21T03:55:50;3.60;99.90
64654;DHT22;51065;48.884;12.598;2024-02-21T03:58:15;3.60;99.90
64654;DHT22;51065;48.884;12.598;2024-02-21T04:00:41;3.50;99.90
64654;DHT22;51065;48.884;12.598;2024-02-21T04:03:06;3.50;99.90
64654;DHT22;51065;48.884;12.598;2024-02-21T04:05:32;3.50;99.90
64654;DHT22;51065;48.884;12.598;2024-02-21T04:07:58;3.60;99.90
64654;DHT22;51065;48.884;12.598;2024-02-21T04:10:24;3.60;99.90
64654;DHT22;51065;48.884;12.598;2024-02-21T04:12:50;3.70;99.90
64654;DHT22;51065;48.884;12.598;2024-02-21T04:15:16;3.60;99.90
64654;DHT22;51065;48.884;12.598;2024-02-21T04:17:42;3.60;99.90
64654;DHT22;51065;48.884;12.598;2024-02-21T04:20:14;3.60;99.90
64654;DHT22;51065;48.884;12.598;2024-02-21T04:22:40;3.60;99.90
64654;DHT22;51065;48.884;12.598;2024-02-21T04:25:06;3.70;99.90
64654;DHT22;51065;48.884;12.598;2024-02-21T04:27:31;3.70;99.90
64654;DHT22;51065;48.884;12.598;2024-02-21T04:29:57;3.80;99.90
64654;DHT22;51065;48.884;12.598;2024-02-21T04:32:22;3.80;99.90
64654;DHT22;51065;48.884;12.598;2024-02-21T04:34:48;3.90;99.90
64654;DHT22;51065;48.884;12.598;2024-02-21T04:37:14;4.00;99.90
64654;DHT22;51065;48.884;12.598;2024-02-21T04:39:40;4.00;99.90
64654;DHT22;51065;48.884;12.598;2024-02-21T04:42:05;4.00;99.90
64654;DHT22;51065;48.884;12.598;2024-02-21T04:44:31;3.90;99.90
64654;DHT22;51065;48.884;12.598;2024-02-21T04:46:56;3.90;99.90
64654;DHT22;51065;48.884;12.598;2024-02-21T04:49:22;3.90;99.90
64654;DHT22;51065;48.884;12.598;2024-02-21T04:51:47;3.90;99.90
64654;DHT22;51065;48.884;12.598;2024-02-21T04:54:13;4.00;99.90
64654;DHT22;51065;48.884;12.598;2024-02-21T04:56:38;4.00;99.90
64654;DHT22;51065;48.884;12.598;2024-02-21T04:59:04;4.00;99.90
64654;DHT22;51065;48.884;12.598;2024-02-21T05:01:29;4.00;99.90
64654;DHT22;51065;48.884;12.598;2024-02-21T05:03:55;3.90;99.90
64654;DHT22;51065;48.884;12.598;2024-02-21T05:06:20;3.90;99.90
64654;DHT22;51065;48.884;12.598;2024-02-21T05:08:47;4.00;99.90
64654;DHT22;51065;48.884;12.598;2024-02-21T05:11:13;4.00;99.90
64654;DHT22;51065;48.884;12.598;2024-02-21T05:13:38;4.00;99.90
64654;DHT22;51065;48.884;12.598;2024-02-21T05:16:04;4.00;99.90
64654;DHT22;51065;48.884;12.598;2024-02-21T05:18:30;4.10;99.90
64654;DHT22;51065;48.884;12.598;2024-02-21T05:20:55;4.00;99.90
64654;DHT22;51065;48.884;12.598;2024-02-21T05:23:21;4.00;99.90
64654;DHT22;51065;48.884;12.598;2024-02-21T05:25:46;4.00;99.90
64654;DHT22;51065;48.884;12.598;2024-02-21T05:28:12;4.00;99.90
64654;DHT22;51065;48.884;12.598;2024-02-21T05:30:38;4.10;99.90
64654;DHT22;51065;48.884;12.598;2024-02-21T05:33:06;4.10;75.50
64654;DHT22;51065;48.884;12.598;2024-02-21T05:35:32;4.10;36.90
64654;DHT22;51065;48.884;12.598;2024-02-21T05:37:58;4.20;20.50
64654;DHT22;51065;48.884;12.598;2024-02-21T05:40:25;4.20;12.10
64654;DHT22;51065;48.884;12.598;2024-02-21T05:42:51;4.20;5.10
64654;DHT22;51065;48.884;12.598;2024-02-21T05:45:17;4.10;1.50
64654;DHT22;51065;48.884;12.598;2024-02-21T05:47:43;4.10;7.60
64654;DHT22;51065;48.884;12.598;2024-02-21T05:50:10;4.00;23.30
64654;DHT22;51065;48.884;12.598;2024-02-21T05:52:36;4.00;41.40
64654;DHT22;51065;48.884;12.598;2024-02-21T05:55:02;3.90;81.40
64654;DHT22;51065;48.884;12.598;2024-02-21T05:57:28;3.90;83.70
64654;DHT22;51065;48.884;12.598;2024-02-21T05:59:54;3.90;78.20
64654;DHT22;51065;48.884;12.598;2024-02-21T06:02:19;3.90;73.00
64654;DHT22;51065;48.884;12.598;2024-02-21T06:04:45;3.90;77.40
64654;DHT22;51065;48.884;12.598;2024-02-21T06:07:11;4.00;67.50
64654;DHT22;51065;48.884;12.598;2024-02-21T06:09:37;4.00;57.00
64654;DHT22;51065;48.884;12.598;2024-02-21T06:12:03;4.00;48.10
64654;DHT22;51065;48.884;12.598;2024-02-21T06:14:29;4.00;41.90
64654;DHT22;51065;48.884;12.598;2024-02-21T06:16:54;4.00;39.90
64654;DHT22;51065;48.884;12.598;2024-02-21T06:19:20;4.00;49.40
64654;DHT22;51065;48.884;12.598;2024-02-21T06:21:45;4.10;42.50
64654;DHT22;51065;48.884;12.598;2024-02-21T06:24:11;4.10;2.00
64654;DHT22;51065;48.884;12.598;2024-02-21T06:26:38;4.20;1.00
64654;DHT22;51065;48.884;12.598;2024-02-21T06:29:03;4.30;1.00
64654;DHT22;51065;48.884;12.598;2024-02-21T06:31:29;4.30;1.00
64654;DHT22;51065;48.884;12.598;2024-02-21T06:33:54;4.30;1.00
64654;DHT22;51065;48.884;12.598;2024-02-21T06:36:20;4.40;1.00
64654;DHT22;51065;48.884;12.598;2024-02-21T06:38:46;4.40;99.90
64654;DHT22;51065;48.884;12.598;2024-02-21T06:41:18;4.40;99.90
64654;DHT22;51065;48.884;12.598;2024-02-21T06:43:47;4.40;99.90
64654;DHT22;51065;48.884;12.598;2024-02-21T06:46:23;4.40;99.90
64654;DHT22;51065;48.884;12.598;2024-02-21T06:48:50;4.50;99.90
64654;DHT22;51065;48.884;12.598;2024-02-21T06:51:16;4.50;99.90
64654;DHT22;51065;48.884;12.598;2024-02-21T06:53:42;4.60;99.90
64654;DHT22;51065;48.884;12.598;2024-02-21T06:56:09;4.70;99.90
64654;DHT22;51065;48.884;12.598;2024-02-21T06:58:35;4.80;99.90
64654;DHT22;51065;48.884;12.598;2024-02-21T07:01:01;4.90;94.50
64654;DHT22;51065;48.884;12.598;2024-02-21T07:03:27;5.00;51.20
64654;DHT22;51065;48.884;12.598;2024-02-21T07:05:52;5.20;41.20
64654;DHT22;51065;48.884;12.598;2024-02-21T07:08:18;5.50;99.90
64654;DHT22;51065;48.884;12.598;2024-02-21T07:10:43;5.80;1.00
64654;DHT22;51065;48.884;12.598;2024-02-21T07:13:09;5.90;99.90
64654;DHT22;51065;48.884;12.598;2024-02-21T07:15:35;5.90;1.00
64654;DHT22;51065;48.884;12.598;2024-02-21T07:18:01;6.00;34.50
64654;DHT22;51065;48.884;12.598;2024-02-21T07:20:27;6.00;1.00
64654;DHT22;51065;48.884;12.598;2024-02-21T07:22:53;5.90;99.90
64654;DHT22;51065;48.884;12.598;2024-02-21T07:25:18;6.10;1.00
64654;DHT22;51065;48.884;12.598;2024-02-21T07:27:45;6.40;1.40
64654;DHT22;51065;48.884;12.598;2024-02-21T07:30:11;6.60;1.00
64654;DHT22;51065;48.884;12.598;2024-02-21T07:32:36;6.80;99.90
64654;DHT22;51065;48.884;12.598;2024-02-21T07:35:02;6.60;99.90
64654;DHT22;51065;48.884;12.598;2024-02-21T07:37:28;6.40;99.90
64654;DHT22;51065;48.884;12.598;2024-02-21T07:39:53;6.50;61.90
64654;DHT22;51065;48.884;12.598;2024-02-21T07:42:19;6.70;26.40
64654;DHT22;51065;48.884;12.598;2024-02-21T07:44:45;6.70;99.90
64654;DHT22;51065;48.884;12.598;2024-02-21T07:47:11;6.90;99.90
64654;DHT22;51065;48.884;12.598;2024-02-21T07:49:46;7.20;1.00
64654;DHT22;51065;48.884;12.598;2024-02-21T07:52:11;7.30;99.90
64654;DHT22;51065;48.884;12.598;2024-02-21T07:54:37;7.30;1.00
64654;DHT22;51065;48.884;12.598;2024-02-21T07:57:03;7.10;1.00
64654;DHT22;51065;48.884;12.598;2024-02-21T07:59:29;6.80;1.00
64654;DHT22;51065;48.884;12.598;2024-02-21T08:01:59;6.60;99.90
64654;DHT22;51065;48.884;12.598;2024-02-21T08:04:25;6.60;99.90
64654;DHT22;51065;48.884;12.598;2024-02-21T08:06:54;6.60;1.00
64654;DHT22;51065;48.884;12.598;2024-02-21T08:09:26;6.50;1.00
64654;DHT22;51065;48.884;12.598;2024-02-21T08:11:53;6.60;99.90
64654;DHT22;51065;48.884;12.598;2024-02-21T08:14:19;6.70;1.00
64654;DHT22;51065;48.884;12.598;2024-02-21T08:16:45;6.50;1.00
64654;DHT22;51065;48.884;12.598;2024-02-21T08:19:10;6.50;1.00
64654;DHT22;51065;48.884;12.598;2024-02-21T08:21:36;6.50;1.00
64654;DHT22;51065;48.884;12.598;2024-02-21T08:24:01;6.50;1.00
64654;DHT22;51065;48.884;12.598;2024-02-21T08:26:27;6.90;99.90
64654;DHT22;51065;48.884;12.598;2024-02-21T08:28:55;7.30;1.00
64654;DHT22;51065;48.884;12.598;2024-02-21T08:31:24;7.50;99.90
64654;DHT22;51065;48.884;12.598;2024-02-21T08:34:02;8.00;49.20
64654;DHT22;51065;48.884;12.598;2024-02-21T08:36:30;8.20;99.90
64654;DHT22;51065;48.884;12.598;2024-02-21T08:38:56;8.30;99.90
64654;DHT22;51065;48.884;12.598;2024-02-21T08:41:25;8.30;99.90
64654;DHT22;51065;48.884;12.598;2024-02-21T08:43:51;8.40;99.90
64654;DHT22;51065;48.884;12.598;2024-02-21T08:46:17;8.50;99.90
64654;DHT22;51065;48.884;12.598;2024-02-21T08:48:43;8.80;92.40
64654;DHT22;51065;48.884;12.598;2024-02-21T08:51:11;9.00;1.00
64654;DHT22;51065;48.884;12.598;2024-02-21T08:53:37;9.10;1.00
64654;DHT22;51065;48.884;12.598;2024-02-21T08:56:03;9.00;1.00
64654;DHT22;51065;48.884;12.598;2024-02-21T08:58:29;9.00;99.90
64654;DHT22;51065;48.884;12.598;2024-02-21T09:00:55;9.30;99.90
64654;DHT22;51065;48.884;12.598;2024-02-21T09:03:20;9.10;99.90
64654;DHT22;51065;48.884;12.598;2024-02-21T09:05:46;9.50;99.90
64654;DHT22;51065;48.884;12.598;2024-02-21T09:08:12;9.50;22.70
64654;DHT22;51065;48.884;12.598;2024-02-21T09:10:39;9.40;99.90
64654;DHT22;51065;48.884;12.598;2024-02-21T09:13:04;9.50;99.90
64654;DHT22;51065;48.884;12.598;2024-02-21T09:15:30;10.50;1.00
64654;DHT22;51065;48.884;12.598;2024-02-21T09:17:55;10.10;99.90
64654;DHT22;51065;48.884;12.598;2024-02-21T09:20:21;10.50;1.00
64654;DHT22;51065;48.884;12.598;2024-02-21T09:22:47;10.90;1.00
64654;DHT22;51065;48.884;12.598;2024-02-21T09:25:12;10.70;99.90
64654;DHT22;51065;48.884;12.598;2024-02-21T09:27:38;10.90;1.00
64654;DHT22;51065;48.884;12.598;2024-02-21T09:30:05;11.20;99.90
64654;DHT22;51065;48.884;12.598;2024-02-21T09:32:31;10.90;1.00
64654;DHT22;51065;48.884;12.598;2024-02-21T09:34:58;10.90;99.90
64654;DHT22;51065;48.884;12.598;2024-02-21T09:37:24;10.80;99.90
64654;DHT22;51065;48.884;12.598;2024-02-21T09:39:49;11.10;99.90
64654;DHT22;51065;48.884;12.598;2024-02-21T09:42:20;10.80;99.90
64654;DHT22;51065;48.884;12.598;2024-02-21T09:44:46;10.80;99.90
64654;DHT22;51065;48.884;12.598;2024-02-21T09:47:39;11.30;99.90
64654;DHT22;51065;48.884;12.598;2024-02-21T09:50:07;11.90;31.10
64654;DHT22;51065;48.884;12.598;2024-02-21T09:52:34;12.20;1.00
64654;DHT22;51065;48.884;12.598;2024-02-21T09:55:01;12.50;1.00
64654;DHT22;51065;48.884;12.598;2024-02-21T09:57:30;12.30;90.20
64654;DHT22;51065;48.884;12.598;2024-02-21T09:59:57;11.10;99.90
64654;DHT22;51065;48.884;12.598;2024-02-21T10:02:24;11.00;99.90
64654;DHT22;51065;48.884;12.598;2024-02-21T10:04:50;11.00;99.90
64654;DHT22;51065;48.884;12.598;2024-02-21T10:07:15;11.20;99.90
64654;DHT22;51065;48.884;12.598;2024-02-21T10:09:41;11.70;99.90
64654;DHT22;51065;48.884;12.598;2024-02-21T10:12:11;11.40;99.30
64654;DHT22;51065;48.884;12.598;2024-02-21T10:14:37;10.90;99.90
64654;DHT22;51065;48.884;12.598;2024-02-21T10:17:03;10.90;99.90
64654;DHT22;51065;48.884;12.598;2024-02-21T10:19:30;11.80;10.80
64654;DHT22;51065;48.884;12.598;2024-02-21T10:22:08;12.30;86.70
64654;DHT22;51065;48.884;12.598;2024-02-21T10:24:35;11.90;1.00
64654;DHT22;51065;48.884;12.598;2024-02-21T10:27:05;12.00;69.80
64654;DHT22;51065;48.884;12.598;2024-02-21T10:29:36;11.70;99.90
64654;DHT22;51065;48.884;12.598;2024-02-21T10:32:12;11.70;1.00
64654;DHT22;51065;48.884;12.598;2024-02-21T10:34:40;11.10;99.90
64654;DHT22;51065;48.884;12.598;2024-02-21T10:37:06;11.10;99.90
64654;DHT22;51065;48.884;12.598;2024-02-21T10:39:33;11.60;99.90
64654;DHT22;51065;48.884;12.598;2024-02-21T10:42:01;11.70;88.00
64654;DHT22;51065;48.884;12.598;2024-02-21T10:44:38;11.60;99.90
64654;DHT22;51065;48.884;12.598;2024-02-21T10:47:09;12.10;1.00
64654;DHT22;51065;48.884;12.598;2024-02-21T10:49:41;11.80;64.80
64654;DHT22;51065;48.884;12.598;2024-02-21T10:52:42;11.50;99.90
64654;DHT22;51065;48.884;12.598;2024-02-21T10:55:20;11.60;91.00
64654;DHT22;51065;48.884;12.598;2024-02-21T10:57:49;12.10;1.00
64654;DHT22;51065;48.884;12.598;2024-02-21T11:00:17;12.20;1.00
64654;DHT22;51065;48.884;12.598;2024-02-21T11:02:44;12.20;1.00
64654;DHT22;51065;48.884;12.598;2024-02-21T11:05:10;12.90;99.90
64654;DHT22;51065;48.884;12.598;2024-02-21T11:07:37;12.60;99.90
64654;DHT22;51065;48.884;12.598;2024-02-21T11:10:03;12.00;99.90
64654;DHT22;51065;48.884;12.598;2024-02-21T11:12:33;12.50;99.90
64654;DHT22;51065;48.884;12.598;2024-02-21T11:15:07;12.70;99.90
64654;DHT22;51065;48.884;12.598;2024-02-21T11:17:33;12.50;99.90
64654;DHT22;51065;48.884;12.598;2024-02-21T11:19:59;13.40;99.90
64654;DHT22;51065;48.884;12.598;2024-02-21T11:22:44;14.10;1.00
64654;DHT22;51065;48.884;12.598;2024-02-21T11:25:10;14.00;1.00
64654;DHT22;51065;48.884;12.598;2024-02-21T11:27:38;13.40;46.40
64654;DHT22;51065;48.884;12.598;2024-02-21T11:30:06;13.90;1.00
64654;DHT22;51065;48.884;12.598;2024-02-21T11:32:32;14.70;1.00
64654;DHT22;51065;48.884;12.598;2024-02-21T11:35:02;14.80;99.90
64654;DHT22;51065;48.884;12.598;2024-02-21T11:37:31;15.30;99.90
64654;DHT22;51065;48.884;12.598;2024-02-21T11:39:59;15.20;99.90
64654;DHT22;51065;48.884;12.598;2024-02-21T11:42:30;14.10;1.00
64654;DHT22;51065;48.884;12.598;2024-02-21T11:44:56;13.80;47.30
64654;DHT22;51065;48.884;12.598;2024-02-21T11:47:23;13.00;99.90
64654;DHT22;51065;48.884;12.598;2024-02-21T11:49:49;11.90;1.00
64654;DHT22;51065;48.884;12.598;2024-02-21T11:52:22;11.80;1.00
64654;DHT22;51065;48.884;12.598;2024-02-21T11:54:50;11.60;28.60
64654;DHT22;51065;48.884;12.598;2024-02-21T11:57:17;11.70;79.60
64654;DHT22;51065;48.884;12.598;2024-02-21T11:59:44;11.30;94.00
64654;DHT22;51065;48.884;12.598;2024-02-21T12:02:11;11.20;89.80
64654;DHT22;51065;48.884;12.598;2024-02-21T12:04:36;11.00;99.90
64654;DHT22;51065;48.884;12.598;2024-02-21T12:07:02;11.30;99.90
64654;DHT22;51065;48.884;12.598;2024-02-21T12:09:30;11.60;99.90
64654;DHT22;51065;48.884;12.598;2024-02-21T12:12:05;11.90;29.90
64654;DHT22;51065;48.884;12.598;2024-02-21T12:14:35;12.00;1.00
64654;DHT22;51065;48.884;12.598;2024-02-21T12:17:01;12.10;1.00
64654;DHT22;51065;48.884;12.598;2024-02-21T12:19:30;12.10;1.00
64654;DHT22;51065;48.884;12.598;2024-02-21T12:21:56;12.70;1.00
64654;DHT22;51065;48.884;12.598;2024-02-21T12:24:27;13.30;99.90
64654;DHT22;51065;48.884;12.598;2024-02-21T12:26:54;13.40;99.90
64654;DHT22;51065;48.884;12.598;2024-02-21T12:29:23;13.80;99.90
64654;DHT22;51065;48.884;12.598;2024-02-21T12:31:54;13.60;99.90
64654;DHT22;51065;48.884;12.598;2024-02-21T12:34:20;13.00;99.90
64654;DHT22;51065;48.884;12.598;2024-02-21T12:36:47;12.30;99.90
64654;DHT22;51065;48.884;12.598;2024-02-21T12:39:13;12.10;99.90
64654;DHT22;51065;48.884;12.598;2024-02-21T12:41:40;11.90;1.00
64654;DHT22;51065;48.884;12.598;2024-02-21T12:44:07;12.00;1.00
64654;DHT22;51065;48.884;12.598;2024-02-21T12:46:34;11.90;1.00
64654;DHT22;51065;48.884;12.598;2024-02-21T12:49:00;12.30;29.80
64654;DHT22;51065;48.884;12.598;2024-02-21T12:51:26;12.80;1.00
64654;DHT22;51065;48.884;12.598;2024-02-21T12:53:51;13.10;1.00
64654;DHT22;51065;48.884;12.598;2024-02-21T12:56:17;13.50;1.00
64654;DHT22;51065;48.884;12.598;2024-02-21T12:58:43;13.00;99.90
64654;DHT22;51065;48.884;12.598;2024-02-21T13:01:10;13.10;99.90
64654;DHT22;51065;48.884;12.598;2024-02-21T13:03:35;12.60;99.90
64654;DHT22;51065;48.884;12.598;2024-02-21T13:06:01;12.80;99.90
64654;DHT22;51065;48.884;12.598;2024-02-21T13:08:26;12.60;1.00
64654;DHT22;51065;48.884;12.598;2024-02-21T13:10:52;12.40;1.00
64654;DHT22;51065;48.884;12.598;2024-02-21T13:13:18;12.00;1.00
64654;DHT22;51065;48.884;12.598;2024-02-21T13:15:44;12.20;1.00
64654;DHT22;51065;48.884;12.598;2024-02-21T13:18:09;11.90;1.00
64654;DHT22;51065;48.884;12.598;2024-02-21T13:20:36;11.90;1.00
64654;DHT22;51065;48.884;12.598;2024-02-21T13:23:02;11.90;1.00
64654;DHT22;51065;48.884;12.598;2024-02-21T13:25:28;11.90;1.00
64654;DHT22;51065;48.884;12.598;2024-02-21T13:27:56;12.30;1.00
64654;DHT22;51065;48.884;12.598;2024-02-21T13:30:23;12.80;99.90
64654;DHT22;51065;48.884;12.598;2024-02-21T13:32:50;12.60;99.90
64654;DHT22;51065;48.884;12.598;2024-02-21T13:35:15;12.30;99.90
64654;DHT22;51065;48.884;12.598;2024-02-21T13:37:41;12.70;99.90
64654;DHT22;51065;48.884;12.598;2024-02-21T13:40:08;12.50;99.90
64654;DHT22;51065;48.884;12.598;2024-02-21T13:42:37;12.60;60.60
64654;DHT22;51065;48.884;12.598;2024-02-21T13:45:04;12.80;48.70
64654;DHT22;51065;48.884;12.598;2024-02-21T13:47:31;13.40;99.90
64654;DHT22;51065;48.884;12.598;2024-02-21T13:49:56;13.60;1.00
64654;DHT22;51065;48.884;12.598;2024-02-21T13:52:22;13.60;1.00
64654;DHT22;51065;48.884;12.598;2024-02-21T13:54:50;14.60;99.90
64654;DHT22;51065;48.884;12.598;2024-02-21T13:57:16;14.80;99.90
64654;DHT22;51065;48.884;12.598;2024-02-21T13:59:41;14.30;99.90
64654;DHT22;51065;48.884;12.598;2024-02-21T14:02:08;14.40;99.90
64654;DHT22;51065;48.884;12.598;2024-02-21T14:04:35;13.30;99.90
64654;DHT22;51065;48.884;12.598;2024-02-21T14:07:00;12.80;1.00
64654;DHT22;51065;48.884;12.598;2024-02-21T14:09:26;12.80;1.00
64654;DHT22;51065;48.884;12.598;2024-02-21T14:11:53;12.70;84.50
64654;DHT22;51065;48.884;12.598;2024-02-21T14:14:19;12.50;41.30
64654;DHT22;51065;48.884;12.598;2024-02-21T14:16:44;12.40;99.90
64654;DHT22;51065;48.884;12.598;2024-02-21T14:19:10;12.30;99.90
64654;DHT22;51065;48.884;12.598;2024-02-21T14:21:37;12.30;99.90
64654;DHT22;51065;48.884;12.598;2024-02-21T14:24:04;12.20;95.00
64654;DHT22;51065;48.884;12.598;2024-02-21T14:26:29;12.10;99.90
64654;DHT22;51065;48.884;12.598;2024-02-21T14:28:57;11.90;99.90
64654;DHT22;51065;48.884;12.598;2024-02-21T14:31:23;11.90;99.90
64654;DHT22;51065;48.884;12.598;2024-02-21T14:33:48;12.00;99.90
64654;DHT22;51065;48.884;12.598;2024-02-21T14:36:15;12.00;99.90
64654;DHT22;51065;48.884;12.598;2024-02-21T14:38:41;12.10;99.90
64654;DHT22;51065;48.884;12.598;2024-02-21T14:41:09;11.90;54.70
64654;DHT22;51065;48.884;12.598;2024-02-21T14:43:34;11.80;1.00
64654;DHT22;51065;48.884;12.598;2024-02-21T14:46:00;11.90;94.50
64654;DHT22;51065;48.884;12.598;2024-02-21T14:48:29;12.00;77.90
64654;DHT22;51065;48.884;12.598;2024-02-21T14:50:55;12.10;99.90
64654;DHT22;51065;48.884;12.598;2024-02-21T14:53:20;12.20;82.40
64654;DHT22;51065;48.884;12.598;2024-02-21T14:55:46;12.20;1.00
64654;DHT22;51065;48.884;12.598;2024-02-21T14:58:12;12.10;70.70
64654;DHT22;51065;48.884;12.598;2024-02-21T15:00:38;12.10;93.90
64654;DHT22;51065;48.884;12.598;2024-02-21T15:03:04;12.10;1.00
64654;DHT22;51065;48.884;12.598;2024-02-21T15:05:30;12.10;71.50
64654;DHT22;51065;48.884;12.598;2024-02-21T15:07:56;12.20;99.90
64654;DHT22;51065;48.884;12.598;2024-02-21T15:10:25;11.90;99.90
64654;DHT22;51065;48.884;12.598;2024-02-21T15:12:51;11.80;1.00
64654;DHT22;51065;48.884;12.598;2024-02-21T15:15:17;11.70;1.00
64654;DHT22;51065;48.884;12.598;2024-02-21T15:17:43;11.60;1.00
64654;DHT22;51065;48.884;12.598;2024-02-21T15:20:08;11.50;1.00
64654;DHT22;51065;48.884;12.598;2024-02-21T15:22:35;11.50;1.00
64654;DHT22;51065;48.884;12.598;2024-02-21T15:25:01;11.30;25.80
64654;DHT22;51065;48.884;12.598;2024-02-21T15:27:26;11.20;99.90